sensor_id;sensor_type;location;lat;lon;timestamp;P1;durP1;ratioP1;P2;durP2;ratioP2
8526;SDS011;4301;48.362;8.478;2023-04-23T00:01:47;1.50;;;1.40;;
8526;SDS011;4301;48.362;8.478;2023-04-23T00:04:14;1.70;;;1.60;;
8526;SDS011;4301;48.362;8.478;2023-04-23T00:06:43;1.73;;;1.47;;
8526;SDS011;4301;48.362;8.478;2023-04-23T00:09:12;1.50;;;1.50;;
8526;SDS011;4301;48.362;8.478;2023-04-23T00:11:42;1.80;;;1.70;;
8526;SDS011;4301;48.362;8.478;2023-04-23T00:14:09;1.40;;;1.40;;
8526;SDS011;4301;48.362;8.478;2023-04-23T00:16:37;2.07;;;1.97;;
8526;SDS011;4301;48.362;8.478;2023-04-23T00:19:05;2.10;;;1.77;;
8526;SDS011;4301;48.362;8.478;2023-04-23T00:21:32;2.70;;;1.50;;
8526;SDS011;4301;48.362;8.478;2023-04-23T00:23:59;2.23;;;1.90;;
8526;SDS011;4301;48.362;8.478;2023-04-23T00:26:26;2.77;;;1.60;;
8526;SDS011;4301;48.362;8.478;2023-04-23T00:28:54;1.77;;;1.67;;
8526;SDS011;4301;48.362;8.478;2023-04-23T00:31:21;1.80;;;1.70;;
8526;SDS011;4301;48.362;8.478;2023-04-23T00:33:48;2.10;;;1.90;;
8526;SDS011;4301;48.362;8.478;2023-04-23T00:36:15;3.77;;;1.70;;
8526;SDS011;4301;48.362;8.478;2023-04-23T00:38:42;1.80;;;1.70;;
8526;SDS011;4301;48.362;8.478;2023-04-23T00:41:09;3.20;;;1.70;;
8526;SDS011;4301;48.362;8.478;2023-04-23T00:43:36;1.90;;;1.80;;
8526;SDS011;4301;48.362;8.478;2023-04-23T00:46:05;2.60;;;2.17;;
8526;SDS011;4301;48.362;8.478;2023-04-23T00:48:33;1.87;;;1.77;;
8526;SDS011;4301;48.362;8.478;2023-04-23T00:51:02;1.83;;;1.73;;
8526;SDS011;4301;48.362;8.478;2023-04-23T00:53:30;2.23;;;2.10;;
8526;SDS011;4301;48.362;8.478;2023-04-23T00:55:58;2.00;;;1.90;;
8526;SDS011;4301;48.362;8.478;2023-04-23T00:58:27;2.60;;;1.80;;
8526;SDS011;4301;48.362;8.478;2023-04-23T01:00:55;2.60;;;2.10;;
8526;SDS011;4301;48.362;8.478;2023-04-23T01:03:24;2.33;;;2.13;;
8526;SDS011;4301;48.362;8.478;2023-04-23T01:05:53;2.07;;;1.97;;
8526;SDS011;4301;48.362;8.478;2023-04-23T01:08:21;2.13;;;2.03;;
8526;SDS011;4301;48.362;8.478;2023-04-23T01:10:50;2.00;;;1.90;;
8526;SDS011;4301;48.362;8.478;2023-04-23T01:13:18;3.00;;;2.00;;
8526;SDS011;4301;48.362;8.478;2023-04-23T01:15:46;2.10;;;1.90;;
8526;SDS011;4301;48.362;8.478;2023-04-23T01:18:13;1.80;;;1.70;;
8526;SDS011;4301;48.362;8.478;2023-04-23T01:20:41;2.27;;;1.87;;
8526;SDS011;4301;48.362;8.478;2023-04-23T01:23:10;2.10;;;2.00;;
8526;SDS011;4301;48.362;8.478;2023-04-23T01:25:37;2.20;;;1.90;;
8526;SDS011;4301;48.362;8.478;2023-04-23T01:28:04;2.07;;;1.83;;
8526;SDS011;4301;48.362;8.478;2023-04-23T01:30:32;2.20;;;2.10;;
8526;SDS011;4301;48.362;8.478;2023-04-23T01:32:59;1.90;;;1.80;;
8526;SDS011;4301;48.362;8.478;2023-04-23T01:35:26;1.90;;;1.80;;
8526;SDS011;4301;48.362;8.478;2023-04-23T01:37:54;1.90;;;1.80;;
8526;SDS011;4301;48.362;8.478;2023-04-23T01:40:23;1.60;;;1.50;;
8526;SDS011;4301;48.362;8.478;2023-04-23T01:42:50;1.87;;;1.77;;
8526;SDS011;4301;48.362;8.478;2023-04-23T01:45:17;1.60;;;1.50;;
8526;SDS011;4301;48.362;8.478;2023-04-23T01:47:45;1.80;;;1.70;;
8526;SDS011;4301;48.362;8.478;2023-04-23T01:50:12;1.80;;;1.70;;
8526;SDS011;4301;48.362;8.478;2023-04-23T01:52:39;1.50;;;1.40;;
8526;SDS011;4301;48.362;8.478;2023-04-23T01:55:08;1.20;;;1.20;;
8526;SDS011;4301;48.362;8.478;2023-04-23T01:57:37;2.00;;;1.30;;
8526;SDS011;4301;48.362;8.478;2023-04-23T02:00:06;1.40;;;1.40;;
8526;SDS011;4301;48.362;8.478;2023-04-23T02:02:35;1.20;;;1.20;;
8526;SDS011;4301;48.362;8.478;2023-04-23T02:05:03;1.17;;;1.17;;
8526;SDS011;4301;48.362;8.478;2023-04-23T02:07:35;1.10;;;1.10;;
8526;SDS011;4301;48.362;8.478;2023-04-23T02:10:02;1.33;;;1.30;;
8526;SDS011;4301;48.362;8.478;2023-04-23T02:12:29;1.10;;;1.10;;
8526;SDS011;4301;48.362;8.478;2023-04-23T02:14:57;1.43;;;1.30;;
8526;SDS011;4301;48.362;8.478;2023-04-23T02:17:25;1.20;;;1.20;;
8526;SDS011;4301;48.362;8.478;2023-04-23T02:19:53;1.47;;;1.37;;
8526;SDS011;4301;48.362;8.478;2023-04-23T02:22:21;1.20;;;1.20;;
8526;SDS011;4301;48.362;8.478;2023-04-23T02:24:50;1.10;;;1.00;;
8526;SDS011;4301;48.362;8.478;2023-04-23T02:27:17;1.00;;;1.00;;
8526;SDS011;4301;48.362;8.478;2023-04-23T02:29:44;1.13;;;1.13;;
8526;SDS011;4301;48.362;8.478;2023-04-23T02:32:13;1.07;;;1.07;;
8526;SDS011;4301;48.362;8.478;2023-04-23T02:34:40;1.00;;;1.00;;
8526;SDS011;4301;48.362;8.478;2023-04-23T02:37:07;1.20;;;1.20;;
8526;SDS011;4301;48.362;8.478;2023-04-23T02:39:34;1.00;;;1.00;;
8526;SDS011;4301;48.362;8.478;2023-04-23T02:42:03;1.10;;;1.10;;
8526;SDS011;4301;48.362;8.478;2023-04-23T02:44:30;1.10;;;1.00;;
8526;SDS011;4301;48.362;8.478;2023-04-23T02:46:57;1.07;;;0.90;;
8526;SDS011;4301;48.362;8.478;2023-04-23T02:49:25;0.93;;;0.93;;
8526;SDS011;4301;48.362;8.478;2023-04-23T02:51:52;1.00;;;1.00;;
8526;SDS011;4301;48.362;8.478;2023-04-23T02:54:19;0.83;;;0.83;;
8526;SDS011;4301;48.362;8.478;2023-04-23T02:56:46;1.00;;;1.00;;
8526;SDS011;4301;48.362;8.478;2023-04-23T02:59:13;1.20;;;1.10;;
8526;SDS011;4301;48.362;8.478;2023-04-23T03:01:40;0.90;;;0.90;;
8526;SDS011;4301;48.362;8.478;2023-04-23T03:04:07;1.97;;;1.10;;
8526;SDS011;4301;48.362;8.478;2023-04-23T03:06:35;0.90;;;0.90;;
8526;SDS011;4301;48.362;8.478;2023-04-23T03:09:02;1.00;;;1.00;;
8526;SDS011;4301;48.362;8.478;2023-04-23T03:11:30;1.20;;;1.00;;
8526;SDS011;4301;48.362;8.478;2023-04-23T03:13:57;1.27;;;1.10;;
8526;SDS011;4301;48.362;8.478;2023-04-23T03:16:26;0.90;;;0.90;;
8526;SDS011;4301;48.362;8.478;2023-04-23T03:18:55;1.27;;;1.20;;
8526;SDS011;4301;48.362;8.478;2023-04-23T03:21:22;1.63;;;1.00;;
8526;SDS011;4301;48.362;8.478;2023-04-23T03:23:51;0.80;;;0.80;;
8526;SDS011;4301;48.362;8.478;2023-04-23T03:26:18;1.37;;;1.00;;
8526;SDS011;4301;48.362;8.478;2023-04-23T03:28:44;1.33;;;1.20;;
8526;SDS011;4301;48.362;8.478;2023-04-23T03:31:11;1.10;;;1.10;;
8526;SDS011;4301;48.362;8.478;2023-04-23T03:33:38;0.87;;;0.87;;
8526;SDS011;4301;48.362;8.478;2023-04-23T03:36:05;1.20;;;1.07;;
8526;SDS011;4301;48.362;8.478;2023-04-23T03:38:33;1.00;;;1.00;;
8526;SDS011;4301;48.362;8.478;2023-04-23T03:41:01;1.17;;;1.17;;
8526;SDS011;4301;48.362;8.478;2023-04-23T03:43:28;1.10;;;1.00;;
8526;SDS011;4301;48.362;8.478;2023-04-23T03:45:55;0.90;;;0.90;;
8526;SDS011;4301;48.362;8.478;2023-04-23T03:48:22;1.00;;;1.00;;
8526;SDS011;4301;48.362;8.478;2023-04-23T03:50:49;1.57;;;1.20;;
8526;SDS011;4301;48.362;8.478;2023-04-23T03:53:16;1.07;;;1.07;;
8526;SDS011;4301;48.362;8.478;2023-04-23T03:55:43;1.00;;;1.00;;
8526;SDS011;4301;48.362;8.478;2023-04-23T03:58:11;1.10;;;1.10;;
8526;SDS011;4301;48.362;8.478;2023-04-23T04:00:38;1.10;;;1.10;;
8526;SDS011;4301;48.362;8.478;2023-04-23T04:03:05;1.20;;;0.97;;
8526;SDS011;4301;48.362;8.478;2023-04-23T04:05:33;1.07;;;1.07;;
8526;SDS011;4301;48.362;8.478;2023-04-23T04:08:00;1.00;;;1.00;;
8526;SDS011;4301;48.362;8.478;2023-04-23T04:10:28;1.60;;;1.10;;
8526;SDS011;4301;48.362;8.478;2023-04-23T04:12:55;1.00;;;1.00;;
8526;SDS011;4301;48.362;8.478;2023-04-23T04:15:24;0.93;;;0.93;;
8526;SDS011;4301;48.362;8.478;2023-04-23T04:17:51;4.43;;;1.10;;
8526;SDS011;4301;48.362;8.478;2023-04-23T04:20:18;1.00;;;1.00;;
8526;SDS011;4301;48.362;8.478;2023-04-23T04:22:45;1.00;;;1.00;;
8526;SDS011;4301;48.362;8.478;2023-04-23T04:25:12;0.90;;;0.90;;
8526;SDS011;4301;48.362;8.478;2023-04-23T04:27:38;1.10;;;1.00;;
8526;SDS011;4301;48.362;8.478;2023-04-23T04:30:08;2.83;;;1.60;;
8526;SDS011;4301;48.362;8.478;2023-04-23T04:32:36;1.10;;;1.10;;
8526;SDS011;4301;48.362;8.478;2023-04-23T04:35:04;1.13;;;1.03;;
8526;SDS011;4301;48.362;8.478;2023-04-23T04:37:32;1.10;;;1.10;;
8526;SDS011;4301;48.362;8.478;2023-04-23T04:40:00;1.00;;;1.00;;
8526;SDS011;4301;48.362;8.478;2023-04-23T04:42:27;1.63;;;1.23;;
8526;SDS011;4301;48.362;8.478;2023-04-23T04:44:54;1.43;;;1.30;;
8526;SDS011;4301;48.362;8.478;2023-04-23T04:47:23;1.00;;;1.00;;
8526;SDS011;4301;48.362;8.478;2023-04-23T04:49:51;1.20;;;1.10;;
8526;SDS011;4301;48.362;8.478;2023-04-23T04:52:21;2.27;;;1.13;;
8526;SDS011;4301;48.362;8.478;2023-04-23T04:54:48;1.23;;;1.00;;
8526;SDS011;4301;48.362;8.478;2023-04-23T04:57:15;1.03;;;1.03;;
8526;SDS011;4301;48.362;8.478;2023-04-23T04:59:42;1.20;;;1.10;;
8526;SDS011;4301;48.362;8.478;2023-04-23T05:02:10;1.20;;;1.10;;
8526;SDS011;4301;48.362;8.478;2023-04-23T05:04:36;1.10;;;1.03;;
8526;SDS011;4301;48.362;8.478;2023-04-23T05:07:05;1.10;;;1.10;;
8526;SDS011;4301;48.362;8.478;2023-04-23T05:09:32;1.40;;;1.30;;
8526;SDS011;4301;48.362;8.478;2023-04-23T05:11:59;0.97;;;0.97;;
8526;SDS011;4301;48.362;8.478;2023-04-23T05:14:26;1.30;;;1.20;;
8526;SDS011;4301;48.362;8.478;2023-04-23T05:16:53;1.57;;;1.47;;
8526;SDS011;4301;48.362;8.478;2023-04-23T05:19:20;1.20;;;1.20;;
8526;SDS011;4301;48.362;8.478;2023-04-23T05:21:47;1.37;;;1.30;;
8526;SDS011;4301;48.362;8.478;2023-04-23T05:24:16;1.40;;;1.30;;
8526;SDS011;4301;48.362;8.478;2023-04-23T05:26:43;1.23;;;1.13;;
8526;SDS011;4301;48.362;8.478;2023-04-23T05:29:10;1.90;;;1.10;;
8526;SDS011;4301;48.362;8.478;2023-04-23T05:31:41;1.40;;;1.10;;
8526;SDS011;4301;48.362;8.478;2023-04-23T05:34:08;1.10;;;1.10;;
8526;SDS011;4301;48.362;8.478;2023-04-23T05:36:35;3.23;;;1.10;;
8526;SDS011;4301;48.362;8.478;2023-04-23T05:39:02;1.07;;;1.07;;
8526;SDS011;4301;48.362;8.478;2023-04-23T05:41:31;1.10;;;1.10;;
8526;SDS011;4301;48.362;8.478;2023-04-23T05:43:58;1.20;;;1.00;;
8526;SDS011;4301;48.362;8.478;2023-04-23T05:46:25;0.93;;;0.93;;
8526;SDS011;4301;48.362;8.478;2023-04-23T05:48:52;1.20;;;1.10;;
8526;SDS011;4301;48.362;8.478;2023-04-23T05:51:19;1.30;;;1.20;;
8526;SDS011;4301;48.362;8.478;2023-04-23T05:53:46;1.00;;;1.00;;
8526;SDS011;4301;48.362;8.478;2023-04-23T05:56:13;1.60;;;1.50;;
8526;SDS011;4301;48.362;8.478;2023-04-23T05:58:42;2.53;;;1.20;;
8526;SDS011;4301;48.362;8.478;2023-04-23T06:01:09;1.30;;;1.20;;
8526;SDS011;4301;48.362;8.478;2023-04-23T06:03:36;1.27;;;1.03;;
8526;SDS011;4301;48.362;8.478;2023-04-23T06:06:05;0.90;;;0.90;;
8526;SDS011;4301;48.362;8.478;2023-04-23T06:08:32;1.60;;;0.97;;
8526;SDS011;4301;48.362;8.478;2023-04-23T06:10:59;1.30;;;1.13;;
8526;SDS011;4301;48.362;8.478;2023-04-23T06:13:27;1.23;;;1.10;;
8526;SDS011;4301;48.362;8.478;2023-04-23T06:15:56;1.30;;;1.20;;
8526;SDS011;4301;48.362;8.478;2023-04-23T06:18:23;1.77;;;1.20;;
8526;SDS011;4301;48.362;8.478;2023-04-23T06:20:51;1.30;;;1.20;;
8526;SDS011;4301;48.362;8.478;2023-04-23T06:23:21;1.70;;;0.97;;
8526;SDS011;4301;48.362;8.478;2023-04-23T06:25:48;1.10;;;1.10;;
8526;SDS011;4301;48.362;8.478;2023-04-23T06:28:15;1.07;;;1.07;;
8526;SDS011;4301;48.362;8.478;2023-04-23T06:30:42;1.50;;;1.03;;
8526;SDS011;4301;48.362;8.478;2023-04-23T06:33:10;1.20;;;1.20;;
8526;SDS011;4301;48.362;8.478;2023-04-23T06:35:37;2.30;;;1.37;;
8526;SDS011;4301;48.362;8.478;2023-04-23T06:38:04;1.40;;;1.30;;
8526;SDS011;4301;48.362;8.478;2023-04-23T06:40:31;1.33;;;1.23;;
8526;SDS011;4301;48.362;8.478;2023-04-23T06:42:58;1.23;;;1.10;;
8526;SDS011;4301;48.362;8.478;2023-04-23T06:45:29;1.10;;;1.10;;
8526;SDS011;4301;48.362;8.478;2023-04-23T06:47:57;1.00;;;1.00;;
8526;SDS011;4301;48.362;8.478;2023-04-23T06:50:25;1.00;;;1.00;;
8526;SDS011;4301;48.362;8.478;2023-04-23T06:52:52;1.03;;;1.03;;
8526;SDS011;4301;48.362;8.478;2023-04-23T06:55:20;1.23;;;1.07;;
8526;SDS011;4301;48.362;8.478;2023-04-23T06:57:50;0.80;;;0.80;;
8526;SDS011;4301;48.362;8.478;2023-04-23T07:00:17;2.17;;;1.20;;
8526;SDS011;4301;48.362;8.478;2023-04-23T07:02:44;1.40;;;1.40;;
8526;SDS011;4301;48.362;8.478;2023-04-23T07:05:11;1.40;;;1.20;;
8526;SDS011;4301;48.362;8.478;2023-04-23T07:07:40;2.77;;;1.30;;
8526;SDS011;4301;48.362;8.478;2023-04-23T07:10:07;1.13;;;1.10;;
8526;SDS011;4301;48.362;8.478;2023-04-23T07:12:35;1.00;;;1.00;;
8526;SDS011;4301;48.362;8.478;2023-04-23T07:15:02;1.17;;;1.17;;
8526;SDS011;4301;48.362;8.478;2023-04-23T07:17:30;1.10;;;1.10;;
8526;SDS011;4301;48.362;8.478;2023-04-23T07:19:57;1.43;;;1.10;;
8526;SDS011;4301;48.362;8.478;2023-04-23T07:22:24;1.67;;;1.10;;
8526;SDS011;4301;48.362;8.478;2023-04-23T07:24:53;0.90;;;0.90;;
8526;SDS011;4301;48.362;8.478;2023-04-23T07:27:20;1.17;;;1.17;;
8526;SDS011;4301;48.362;8.478;2023-04-23T07:29:47;1.37;;;1.30;;
8526;SDS011;4301;48.362;8.478;2023-04-23T07:32:13;1.67;;;1.20;;
8526;SDS011;4301;48.362;8.478;2023-04-23T07:34:40;1.10;;;1.10;;
8526;SDS011;4301;48.362;8.478;2023-04-23T07:37:07;1.23;;;1.13;;
8526;SDS011;4301;48.362;8.478;2023-04-23T07:39:34;1.40;;;1.20;;
8526;SDS011;4301;48.362;8.478;2023-04-23T07:42:02;1.40;;;1.30;;
8526;SDS011;4301;48.362;8.478;2023-04-23T07:44:30;1.83;;;1.40;;
8526;SDS011;4301;48.362;8.478;2023-04-23T07:46:56;1.93;;;1.40;;
8526;SDS011;4301;48.362;8.478;2023-04-23T07:49:24;1.43;;;1.20;;
8526;SDS011;4301;48.362;8.478;2023-04-23T07:51:51;1.37;;;1.20;;
8526;SDS011;4301;48.362;8.478;2023-04-23T07:54:18;1.17;;;1.10;;
8526;SDS011;4301;48.362;8.478;2023-04-23T07:56:45;1.20;;;1.10;;
8526;SDS011;4301;48.362;8.478;2023-04-23T07:59:13;2.77;;;1.10;;
8526;SDS011;4301;48.362;8.478;2023-04-23T08:01:40;1.00;;;1.00;;
8526;SDS011;4301;48.362;8.478;2023-04-23T08:04:07;1.33;;;1.17;;
8526;SDS011;4301;48.362;8.478;2023-04-23T08:06:34;0.90;;;0.90;;
8526;SDS011;4301;48.362;8.478;2023-04-23T08:09:01;1.83;;;1.10;;
8526;SDS011;4301;48.362;8.478;2023-04-23T08:11:30;1.10;;;1.10;;
8526;SDS011;4301;48.362;8.478;2023-04-23T08:13:57;1.20;;;1.10;;
8526;SDS011;4301;48.362;8.478;2023-04-23T08:16:26;1.13;;;1.10;;
8526;SDS011;4301;48.362;8.478;2023-04-23T08:18:53;1.00;;;1.00;;
8526;SDS011;4301;48.362;8.478;2023-04-23T08:21:20;1.27;;;1.20;;
8526;SDS011;4301;48.362;8.478;2023-04-23T08:23:48;1.13;;;1.03;;
8526;SDS011;4301;48.362;8.478;2023-04-23T08:26:15;1.43;;;1.20;;
8526;SDS011;4301;48.362;8.478;2023-04-23T08:28:42;1.00;;;1.00;;
8526;SDS011;4301;48.362;8.478;2023-04-23T08:31:09;1.20;;;1.10;;
8526;SDS011;4301;48.362;8.478;2023-04-23T08:33:38;1.17;;;1.07;;
8526;SDS011;4301;48.362;8.478;2023-04-23T08:36:05;1.23;;;1.20;;
8526;SDS011;4301;48.362;8.478;2023-04-23T08:38:33;2.27;;;1.20;;
8526;SDS011;4301;48.362;8.478;2023-04-23T08:41:00;1.53;;;1.10;;
8526;SDS011;4301;48.362;8.478;2023-04-23T08:43:31;1.20;;;1.20;;
8526;SDS011;4301;48.362;8.478;2023-04-23T08:46:10;1.10;;;1.10;;
8526;SDS011;4301;48.362;8.478;2023-04-23T08:48:40;1.00;;;1.00;;
8526;SDS011;4301;48.362;8.478;2023-04-23T08:51:09;1.30;;;1.20;;
8526;SDS011;4301;48.362;8.478;2023-04-23T08:53:41;1.00;;;1.00;;
8526;SDS011;4301;48.362;8.478;2023-04-23T08:56:09;1.27;;;1.23;;
8526;SDS011;4301;48.362;8.478;2023-04-23T08:58:39;1.30;;;1.30;;
8526;SDS011;4301;48.362;8.478;2023-04-23T09:01:08;1.20;;;1.20;;
8526;SDS011;4301;48.362;8.478;2023-04-23T09:03:36;2.87;;;1.30;;
8526;SDS011;4301;48.362;8.478;2023-04-23T09:06:05;1.57;;;1.10;;
8526;SDS011;4301;48.362;8.478;2023-04-23T09:08:33;2.40;;;1.27;;
8526;SDS011;4301;48.362;8.478;2023-04-23T09:11:00;1.10;;;1.10;;
8526;SDS011;4301;48.362;8.478;2023-04-23T09:13:28;1.30;;;1.20;;
8526;SDS011;4301;48.362;8.478;2023-04-23T09:15:56;1.20;;;1.20;;
8526;SDS011;4301;48.362;8.478;2023-04-23T09:18:23;1.30;;;1.10;;
8526;SDS011;4301;48.362;8.478;2023-04-23T09:20:50;2.20;;;1.20;;
8526;SDS011;4301;48.362;8.478;2023-04-23T09:23:21;1.30;;;1.20;;
8526;SDS011;4301;48.362;8.478;2023-04-23T09:25:48;1.30;;;1.30;;
8526;SDS011;4301;48.362;8.478;2023-04-23T09:28:16;1.27;;;1.20;;
8526;SDS011;4301;48.362;8.478;2023-04-23T09:30:44;1.30;;;1.30;;
8526;SDS011;4301;48.362;8.478;2023-04-23T09:33:11;2.00;;;1.30;;
8526;SDS011;4301;48.362;8.478;2023-04-23T09:35:38;1.33;;;1.25;;
8526;SDS011;4301;48.362;8.478;2023-04-23T09:38:07;1.92;;;1.13;;
8526;SDS011;4301;48.362;8.478;2023-04-23T09:40:36;2.75;;;1.50;;
8526;SDS011;4301;48.362;8.478;2023-04-23T09:43:03;1.27;;;1.27;;
8526;SDS011;4301;48.362;8.478;2023-04-23T09:45:31;1.67;;;1.20;;
8526;SDS011;4301;48.362;8.478;2023-04-23T09:47:59;1.30;;;1.30;;
8526;SDS011;4301;48.362;8.478;2023-04-23T09:50:32;1.00;;;1.00;;
8526;SDS011;4301;48.362;8.478;2023-04-23T09:53:00;1.98;;;1.10;;
8526;SDS011;4301;48.362;8.478;2023-04-23T09:55:28;1.30;;;1.30;;
8526;SDS011;4301;48.362;8.478;2023-04-23T09:58:00;1.58;;;1.48;;
8526;SDS011;4301;48.362;8.478;2023-04-23T10:00:31;1.33;;;1.23;;
8526;SDS011;4301;48.362;8.478;2023-04-23T10:02:59;1.42;;;1.20;;
8526;SDS011;4301;48.362;8.478;2023-04-23T10:05:27;1.30;;;1.20;;
8526;SDS011;4301;48.362;8.478;2023-04-23T10:07:54;1.48;;;1.38;;
8526;SDS011;4301;48.362;8.478;2023-04-23T10:10:22;1.55;;;1.25;;
8526;SDS011;4301;48.362;8.478;2023-04-23T10:12:50;1.40;;;1.30;;
8526;SDS011;4301;48.362;8.478;2023-04-23T10:15:20;1.20;;;1.20;;
8526;SDS011;4301;48.362;8.478;2023-04-23T10:17:50;1.55;;;1.45;;
8526;SDS011;4301;48.362;8.478;2023-04-23T10:20:17;1.38;;;1.38;;
8526;SDS011;4301;48.362;8.478;2023-04-23T10:22:46;1.63;;;1.40;;
8526;SDS011;4301;48.362;8.478;2023-04-23T10:25:14;1.40;;;1.30;;
8526;SDS011;4301;48.362;8.478;2023-04-23T10:27:42;1.63;;;1.45;;
8526;SDS011;4301;48.362;8.478;2023-04-23T10:30:10;1.30;;;1.20;;
8526;SDS011;4301;48.362;8.478;2023-04-23T10:32:40;1.30;;;1.10;;
8526;SDS011;4301;48.362;8.478;2023-04-23T10:35:07;1.40;;;1.30;;
8526;SDS011;4301;48.362;8.478;2023-04-23T10:37:35;1.50;;;1.40;;
8526;SDS011;4301;48.362;8.478;2023-04-23T10:40:04;1.47;;;1.40;;
8526;SDS011;4301;48.362;8.478;2023-04-23T10:42:35;1.37;;;1.30;;
8526;SDS011;4301;48.362;8.478;2023-04-23T10:45:10;1.37;;;1.30;;
8526;SDS011;4301;48.362;8.478;2023-04-23T10:47:42;1.60;;;1.40;;
8526;SDS011;4301;48.362;8.478;2023-04-23T10:50:20;1.20;;;1.20;;
8526;SDS011;4301;48.362;8.478;2023-04-23T10:52:48;1.50;;;1.40;;
8526;SDS011;4301;48.362;8.478;2023-04-23T10:55:18;1.30;;;1.30;;
8526;SDS011;4301;48.362;8.478;2023-04-23T10:57:59;2.28;;;1.30;;
8526;SDS011;4301;48.362;8.478;2023-04-23T11:00:28;2.50;;;1.30;;
8526;SDS011;4301;48.362;8.478;2023-04-23T11:02:57;1.33;;;1.33;;
8526;SDS011;4301;48.362;8.478;2023-04-23T11:05:27;1.30;;;1.30;;
8526;SDS011;4301;48.362;8.478;2023-04-23T11:08:04;1.33;;;1.30;;
8526;SDS011;4301;48.362;8.478;2023-04-23T11:10:32;1.30;;;1.30;;
8526;SDS011;4301;48.362;8.478;2023-04-23T11:15:48;1.60;;;1.50;;
8526;SDS011;4301;48.362;8.478;2023-04-23T11:21:27;1.30;;;1.20;;
8526;SDS011;4301;48.362;8.478;2023-04-23T11:24:29;1.42;;;1.33;;
8526;SDS011;4301;48.362;8.478;2023-04-23T11:26:57;1.57;;;1.47;;
8526;SDS011;4301;48.362;8.478;2023-04-23T11:29:25;1.48;;;1.38;;
8526;SDS011;4301;48.362;8.478;2023-04-23T11:31:54;2.10;;;1.30;;
8526;SDS011;4301;48.362;8.478;2023-04-23T11:34:21;2.23;;;1.40;;
8526;SDS011;4301;48.362;8.478;2023-04-23T11:36:50;1.30;;;1.20;;
8526;SDS011;4301;48.362;8.478;2023-04-23T11:39:20;1.10;;;1.10;;
8526;SDS011;4301;48.362;8.478;2023-04-23T11:41:48;1.30;;;1.20;;
8526;SDS011;4301;48.362;8.478;2023-04-23T11:44:16;1.40;;;1.40;;
8526;SDS011;4301;48.362;8.478;2023-04-23T11:46:44;2.90;;;1.20;;
8526;SDS011;4301;48.362;8.478;2023-04-23T11:49:13;1.75;;;1.10;;
8526;SDS011;4301;48.362;8.478;2023-04-23T11:51:41;1.38;;;1.23;;
8526;SDS011;4301;48.362;8.478;2023-04-23T11:54:09;1.27;;;1.13;;
8526;SDS011;4301;48.362;8.478;2023-04-23T11:56:39;1.20;;;1.15;;
8526;SDS011;4301;48.362;8.478;2023-04-23T11:59:06;1.17;;;1.17;;
8526;SDS011;4301;48.362;8.478;2023-04-23T12:01:43;2.03;;;1.25;;
8526;SDS011;4301;48.362;8.478;2023-04-23T12:04:12;1.48;;;1.08;;
8526;SDS011;4301;48.362;8.478;2023-04-23T12:06:40;1.10;;;1.10;;
8526;SDS011;4301;48.362;8.478;2023-04-23T12:09:08;1.30;;;1.20;;
8526;SDS011;4301;48.362;8.478;2023-04-23T12:11:35;2.20;;;1.10;;
8526;SDS011;4301;48.362;8.478;2023-04-23T12:14:04;1.45;;;1.20;;
8526;SDS011;4301;48.362;8.478;2023-04-23T12:16:33;1.40;;;1.25;;
8526;SDS011;4301;48.362;8.478;2023-04-23T12:19:01;1.10;;;1.10;;
8526;SDS011;4301;48.362;8.478;2023-04-23T12:21:29;1.08;;;1.08;;
8526;SDS011;4301;48.362;8.478;2023-04-23T12:23:57;1.30;;;1.20;;
8526;SDS011;4301;48.362;8.478;2023-04-23T12:26:25;1.30;;;1.20;;
8526;SDS011;4301;48.362;8.478;2023-04-23T12:28:53;2.60;;;1.20;;
8526;SDS011;4301;48.362;8.478;2023-04-23T12:31:24;2.00;;;1.10;;
8526;SDS011;4301;48.362;8.478;2023-04-23T12:33:56;1.75;;;1.20;;
8526;SDS011;4301;48.362;8.478;2023-04-23T12:36:25;1.00;;;1.00;;
8526;SDS011;4301;48.362;8.478;2023-04-23T12:38:54;0.85;;;0.85;;
8526;SDS011;4301;48.362;8.478;2023-04-23T12:41:51;1.05;;;0.95;;
8526;SDS011;4301;48.362;8.478;2023-04-23T12:44:20;1.33;;;1.02;;
8526;SDS011;4301;48.362;8.478;2023-04-23T12:46:52;3.03;;;1.05;;
8526;SDS011;4301;48.362;8.478;2023-04-23T12:49:20;1.20;;;1.10;;
8526;SDS011;4301;48.362;8.478;2023-04-23T12:51:47;4.35;;;1.20;;
8526;SDS011;4301;48.362;8.478;2023-04-23T12:54:14;1.65;;;0.88;;
8526;SDS011;4301;48.362;8.478;2023-04-23T12:56:41;1.45;;;1.23;;
8526;SDS011;4301;48.362;8.478;2023-04-23T12:59:08;2.08;;;1.30;;
8526;SDS011;4301;48.362;8.478;2023-04-23T13:01:35;1.27;;;1.17;;
8526;SDS011;4301;48.362;8.478;2023-04-23T13:04:04;1.00;;;1.00;;
8526;SDS011;4301;48.362;8.478;2023-04-23T13:06:31;1.38;;;1.00;;
8526;SDS011;4301;48.362;8.478;2023-04-23T13:08:58;1.50;;;1.20;;
8526;SDS011;4301;48.362;8.478;2023-04-23T13:11:27;1.13;;;1.13;;
8526;SDS011;4301;48.362;8.478;2023-04-23T13:13:54;1.10;;;1.05;;
8526;SDS011;4301;48.362;8.478;2023-04-23T13:16:21;2.35;;;1.20;;
8526;SDS011;4301;48.362;8.478;2023-04-23T13:18:48;1.17;;;1.08;;
8526;SDS011;4301;48.362;8.478;2023-04-23T13:21:18;2.10;;;1.10;;
8526;SDS011;4301;48.362;8.478;2023-04-23T13:23:45;1.00;;;1.00;;
8526;SDS011;4301;48.362;8.478;2023-04-23T13:26:12;1.17;;;1.02;;
8526;SDS011;4301;48.362;8.478;2023-04-23T13:28:39;1.48;;;0.98;;
8526;SDS011;4301;48.362;8.478;2023-04-23T13:31:06;1.38;;;1.00;;
8526;SDS011;4301;48.362;8.478;2023-04-23T13:33:35;4.55;;;1.20;;
8526;SDS011;4301;48.362;8.478;2023-04-23T13:36:02;1.33;;;1.20;;
8526;SDS011;4301;48.362;8.478;2023-04-23T13:38:31;1.20;;;0.90;;
8526;SDS011;4301;48.362;8.478;2023-04-23T13:40:58;1.30;;;1.20;;
8526;SDS011;4301;48.362;8.478;2023-04-23T13:43:25;1.30;;;1.20;;
8526;SDS011;4301;48.362;8.478;2023-04-23T13:45:52;2.20;;;1.10;;
8526;SDS011;4301;48.362;8.478;2023-04-23T13:48:19;1.00;;;1.00;;
8526;SDS011;4301;48.362;8.478;2023-04-23T13:50:47;2.10;;;1.30;;
8526;SDS011;4301;48.362;8.478;2023-04-23T13:53:14;1.23;;;1.10;;
8526;SDS011;4301;48.362;8.478;2023-04-23T13:55:42;1.50;;;1.20;;
8526;SDS011;4301;48.362;8.478;2023-04-23T13:58:09;2.70;;;1.13;;
8526;SDS011;4301;48.362;8.478;2023-04-23T14:00:36;1.75;;;1.08;;
8526;SDS011;4301;48.362;8.478;2023-04-23T14:03:03;1.17;;;1.10;;
8526;SDS011;4301;48.362;8.478;2023-04-23T14:05:30;3.28;;;1.30;;
8526;SDS011;4301;48.362;8.478;2023-04-23T14:07:57;6.47;;;1.33;;
8526;SDS011;4301;48.362;8.478;2023-04-23T14:10:24;1.70;;;1.17;;
8526;SDS011;4301;48.362;8.478;2023-04-23T14:12:52;1.10;;;1.10;;
8526;SDS011;4301;48.362;8.478;2023-04-23T14:15:20;2.60;;;1.50;;
8526;SDS011;4301;48.362;8.478;2023-04-23T14:17:48;0.90;;;0.90;;
8526;SDS011;4301;48.362;8.478;2023-04-23T14:20:15;2.57;;;1.27;;
8526;SDS011;4301;48.362;8.478;2023-04-23T14:22:45;1.42;;;1.27;;
8526;SDS011;4301;48.362;8.478;2023-04-23T14:25:15;1.27;;;1.17;;
8526;SDS011;4301;48.362;8.478;2023-04-23T14:27:50;1.43;;;1.20;;
8526;SDS011;4301;48.362;8.478;2023-04-23T14:30:26;1.57;;;1.20;;
8526;SDS011;4301;48.362;8.478;2023-04-23T14:32:53;1.53;;;1.43;;
8526;SDS011;4301;48.362;8.478;2023-04-23T14:35:22;1.70;;;1.20;;
8526;SDS011;4301;48.362;8.478;2023-04-23T14:37:49;1.20;;;1.20;;
8526;SDS011;4301;48.362;8.478;2023-04-23T14:40:16;1.40;;;1.20;;
8526;SDS011;4301;48.362;8.478;2023-04-23T14:42:45;1.30;;;1.20;;
8526;SDS011;4301;48.362;8.478;2023-04-23T14:45:14;1.63;;;0.97;;
8526;SDS011;4301;48.362;8.478;2023-04-23T14:47:42;1.33;;;1.23;;
8526;SDS011;4301;48.362;8.478;2023-04-23T14:50:12;1.43;;;1.33;;
8526;SDS011;4301;48.362;8.478;2023-04-23T14:52:41;1.33;;;1.03;;
8526;SDS011;4301;48.362;8.478;2023-04-23T14:55:12;1.17;;;1.10;;
8526;SDS011;4301;48.362;8.478;2023-04-23T14:57:39;1.10;;;1.10;;
8526;SDS011;4301;48.362;8.478;2023-04-23T15:00:06;1.53;;;1.20;;
8526;SDS011;4301;48.362;8.478;2023-04-23T15:02:38;1.93;;;1.20;;
8526;SDS011;4301;48.362;8.478;2023-04-23T15:05:05;2.80;;;1.40;;
8526;SDS011;4301;48.362;8.478;2023-04-23T15:07:33;2.10;;;1.37;;
8526;SDS011;4301;48.362;8.478;2023-04-23T15:10:00;1.50;;;1.27;;
8526;SDS011;4301;48.362;8.478;2023-04-23T15:15:20;2.47;;;1.40;;
8526;SDS011;4301;48.362;8.478;2023-04-23T15:17:54;3.93;;;1.60;;
8526;SDS011;4301;48.362;8.478;2023-04-23T15:20:21;1.60;;;1.50;;
8526;SDS011;4301;48.362;8.478;2023-04-23T15:22:48;3.57;;;1.60;;
8526;SDS011;4301;48.362;8.478;2023-04-23T15:25:16;2.73;;;1.30;;
8526;SDS011;4301;48.362;8.478;2023-04-23T15:27:43;1.60;;;1.50;;
8526;SDS011;4301;48.362;8.478;2023-04-23T15:30:11;1.37;;;1.27;;